sensor_id;sensor_type;location;lat;lon;timestamp;pressure;altitude;pressure_sealevel;temperature;humidity
58467;BME280;44255;49.244;7.726;2023-04-07T03:32:43;98193.50;;;-1.41;95.58
58467;BME280;44255;49.244;7.726;2023-04-07T03:35:08;98185.78;;;-1.49;94.82
58467;BME280;44255;49.244;7.726;2023-04-07T03:37:34;98190.16;;;-1.48;94.78
58467;BME280;44255;49.244;7.726;2023-04-07T03:39:59;98195.44;;;-1.48;94.26
58467;BME280;44255;49.244;7.726;2023-04-07T03:42:25;98180.53;;;-1.52;95.33
58467;BME280;44255;49.244;7.726;2023-04-07T03:44:50;98190.28;;;-1.54;93.81
58467;BME280;44255;49.244;7.726;2023-04-07T03:47:16;98189.34;;;-1.52;94.09
58467;BME280;44255;49.244;7.726;2023-04-07T03:49:41;98197.38;;;-1.56;94.06
58467;BME280;44255;49.244;7.726;2023-04-07T03:52:06;98205.13;;;-1.49;93.05
58467;BME280;44255;49.244;7.726;2023-04-07T03:54:32;98193.91;;;-1.58;94.00
58467;BME280;44255;49.244;7.726;2023-04-07T03:56:59;98191.22;;;-1.57;94.96
58467;BME280;44255;49.244;7.726;2023-04-07T03:59:25;98188.63;;;-1.58;94.10
58467;BME280;44255;49.244;7.726;2023-04-07T04:01:51;98187.69;;;-1.56;93.68
58467;BME280;44255;49.244;7.726;2023-04-07T04:04:16;98196.03;;;-1.76;95.25
58467;BME280;44255;49.244;7.726;2023-04-07T04:06:41;98189.84;;;-1.75;94.55
58467;BME280;44255;49.244;7.726;2023-04-07T04:09:07;98193.44;;;-1.78;95.13
58467;BME280;44255;49.244;7.726;2023-04-07T04:11:32;98202.53;;;-1.91;93.77
58467;BME280;44255;49.244;7.726;2023-04-07T04:13:57;98212.38;;;-1.98;94.18
58467;BME280;44255;49.244;7.726;2023-04-07T04:16:22;98200.13;;;-2.05;95.06
58467;BME280;44255;49.244;7.726;2023-04-07T04:18:48;98199.16;;;-1.98;94.72
58467;BME280;44255;49.244;7.726;2023-04-07T04:21:13;98204.28;;;-1.90;94.20
58467;BME280;44255;49.244;7.726;2023-04-07T04:23:38;98202.53;;;-1.91;93.42
58467;BME280;44255;49.244;7.726;2023-04-07T04:26:03;98204.31;;;-1.92;93.48
58467;BME280;44255;49.244;7.726;2023-04-07T04:28:29;98199.66;;;-1.80;92.60
58467;BME280;44255;49.244;7.726;2023-04-07T04:30:54;98195.97;;;-1.73;92.38
58467;BME280;44255;49.244;7.726;2023-04-07T04:33:20;98196.13;;;-1.79;92.46
58467;BME280;44255;49.244;7.726;2023-04-07T04:35:45;98196.50;;;-1.99;92.32
58467;BME280;44255;49.244;7.726;2023-04-07T04:38:11;98190.34;;;-1.97;92.09
58467;BME280;44255;49.244;7.726;2023-04-07T04:40:36;98188.28;;;-1.84;91.46
58467;BME280;44255;49.244;7.726;2023-04-07T04:43:01;98179.38;;;-1.80;90.15
58467;BME280;44255;49.244;7.726;2023-04-07T04:45:31;98188.38;;;-1.89;90.71
58467;BME280;44255;49.244;7.726;2023-04-07T04:47:56;98186.81;;;-1.97;91.98
58467;BME280;44255;49.244;7.726;2023-04-07T04:50:21;98197.97;;;-1.84;91.63
58467;BME280;44255;49.244;7.726;2023-04-07T04:52:47;98204.53;;;-2.04;92.96
58467;BME280;44255;49.244;7.726;2023-04-07T04:55:12;98195.53;;;-1.92;92.39
58467;BME280;44255;49.244;7.726;2023-04-07T04:57:37;98201.69;;;-1.93;91.57
58467;BME280;44255;49.244;7.726;2023-04-07T05:00:04;98195.56;;;-1.95;92.06
58467;BME280;44255;49.244;7.726;2023-04-07T05:02:29;98207.44;;;-2.18;91.55
58467;BME280;44255;49.244;7.726;2023-04-07T05:04:54;98214.75;;;-2.31;93.14
58467;BME280;44255;49.244;7.726;2023-04-07T05:07:20;98207.66;;;-2.29;93.61
58467;BME280;44255;49.244;7.726;2023-04-07T05:09:45;98217.31;;;-2.28;93.21
58467;BME280;44255;49.244;7.726;2023-04-07T05:12:10;98215.44;;;-2.21;92.20
58467;BME280;44255;49.244;7.726;2023-04-07T05:14:35;98216.41;;;-2.27;92.83
58467;BME280;44255;49.244;7.726;2023-04-07T05:17:01;98217.47;;;-2.34;92.59
58467;BME280;44255;49.244;7.726;2023-04-07T05:19:26;98209.63;;;-2.40;92.93
58467;BME280;44255;49.244;7.726;2023-04-07T05:21:53;98213.09;;;-2.38;92.24
58467;BME280;44255;49.244;7.726;2023-04-07T05:24:19;98211.31;;;-2.36;92.13
58467;BME280;44255;49.244;7.726;2023-04-07T05:26:44;98209.41;;;-2.30;90.79
58467;BME280;44255;49.244;7.726;2023-04-07T05:29:09;98214.63;;;-2.25;90.86
58467;BME280;44255;49.244;7.726;2023-04-07T05:31:34;98206.94;;;-2.37;91.06
58467;BME280;44255;49.244;7.726;2023-04-07T05:34:01;98203.59;;;-2.47;91.16
58467;BME280;44255;49.244;7.726;2023-04-07T05:36:26;98205.03;;;-2.31;91.73
58467;BME280;44255;49.244;7.726;2023-04-07T05:38:52;98203.44;;;-2.39;92.74
58467;BME280;44255;49.244;7.726;2023-04-07T05:41:17;98203.66;;;-2.50;93.97
58467;BME280;44255;49.244;7.726;2023-04-07T05:43:42;98197.81;;;-2.21;93.25
58467;BME280;44255;49.244;7.726;2023-04-07T05:46:08;98210.78;;;-2.08;92.45
58467;BME280;44255;49.244;7.726;2023-04-07T05:48:33;98198.16;;;-1.92;90.57
58467;BME280;44255;49.244;7.726;2023-04-07T05:50:59;98192.03;;;-1.94;90.18
58467;BME280;44255;49.244;7.726;2023-04-07T05:53:24;98185.94;;;-1.99;90.54
58467;BME280;44255;49.244;7.726;2023-04-07T05:55:50;98184.06;;;-1.93;89.77
58467;BME280;44255;49.244;7.726;2023-04-07T05:58:18;98180.66;;;-1.98;89.87
58467;BME280;44255;49.244;7.726;2023-04-07T06:00:43;98183.00;;;-1.84;89.99
58467;BME280;44255;49.244;7.726;2023-04-07T06:03:08;98185.97;;;-2.01;90.31
58467;BME280;44255;49.244;7.726;2023-04-07T06:05:33;98189.50;;;-2.02;90.73
58467;BME280;44255;49.244;7.726;2023-04-07T06:07:58;98187.41;;;-1.84;88.44
58467;BME280;44255;49.244;7.726;2023-04-07T06:10:24;98182.41;;;-1.97;89.07
58467;BME280;44255;49.244;7.726;2023-04-07T06:12:49;98184.28;;;-2.05;89.28
58467;BME280;44255;49.244;7.726;2023-04-07T06:15:15;98188.59;;;-1.98;88.85
58467;BME280;44255;49.244;7.726;2023-04-07T06:17:40;98182.19;;;-2.32;89.59
58467;BME280;44255;49.244;7.726;2023-04-07T06:20:06;98197.81;;;-2.21;89.81
58467;BME280;44255;49.244;7.726;2023-04-07T06:22:31;98201.13;;;-2.11;90.82
58467;BME280;44255;49.244;7.726;2023-04-07T06:24:57;98206.38;;;-2.08;90.92
58467;BME280;44255;49.244;7.726;2023-04-07T06:27:22;98202.72;;;-2.02;90.84
58467;BME280;44255;49.244;7.726;2023-04-07T06:29:47;98209.41;;;-2.28;90.73
58467;BME280;44255;49.244;7.726;2023-04-07T06:32:12;98201.81;;;-1.98;90.92
58467;BME280;44255;49.244;7.726;2023-04-07T06:34:38;98203.88;;;-2.16;91.52
58467;BME280;44255;49.244;7.726;2023-04-07T06:37:03;98208.13;;;-3.03;96.00
58467;BME280;44255;49.244;7.726;2023-04-07T06:39:29;98206.56;;;-2.64;97.11
58467;BME280;44255;49.244;7.726;2023-04-07T06:41:55;98206.16;;;-2.44;98.21
58467;BME280;44255;49.244;7.726;2023-04-07T06:44:21;98210.84;;;-2.11;97.06
58467;BME280;44255;49.244;7.726;2023-04-07T06:46:46;98217.53;;;-1.93;96.11
58467;BME280;44255;49.244;7.726;2023-04-07T06:49:14;98212.47;;;-1.62;94.94
58467;BME280;44255;49.244;7.726;2023-04-07T06:51:40;98221.72;;;-1.42;93.50
58467;BME280;44255;49.244;7.726;2023-04-07T06:54:05;98220.63;;;-1.33;93.16
58467;BME280;44255;49.244;7.726;2023-04-07T06:56:36;98221.09;;;-1.14;91.67
58467;BME280;44255;49.244;7.726;2023-04-07T06:59:01;98225.28;;;-1.05;91.17
58467;BME280;44255;49.244;7.726;2023-04-07T07:01:27;98221.72;;;-1.04;91.30
58467;BME280;44255;49.244;7.726;2023-04-07T07:03:52;98220.09;;;-1.10;91.72
58467;BME280;44255;49.244;7.726;2023-04-07T07:06:17;98225.09;;;-0.97;91.08
58467;BME280;44255;49.244;7.726;2023-04-07T07:08:43;98225.75;;;-0.89;90.84
58467;BME280;44255;49.244;7.726;2023-04-07T07:11:08;98216.31;;;-0.63;90.11
58467;BME280;44255;49.244;7.726;2023-04-07T07:13:33;98229.16;;;-0.49;88.78
58467;BME280;44255;49.244;7.726;2023-04-07T07:15:59;98229.25;;;-0.52;89.56
58467;BME280;44255;49.244;7.726;2023-04-07T07:18:24;98223.78;;;-0.46;89.67
58467;BME280;44255;49.244;7.726;2023-04-07T07:20:50;98228.75;;;-0.34;90.61
58467;BME280;44255;49.244;7.726;2023-04-07T07:23:15;98222.66;;;-0.37;90.63
58467;BME280;44255;49.244;7.726;2023-04-07T07:25:40;98225.31;;;-0.37;92.44
58467;BME280;44255;49.244;7.726;2023-04-07T07:28:05;98223.75;;;-0.11;92.88
58467;BME280;44255;49.244;7.726;2023-04-07T07:30:31;98204.97;;;0.26;91.66
58467;BME280;44255;49.244;7.726;2023-04-07T07:32:56;98208.41;;;0.30;90.94
58467;BME280;44255;49.244;7.726;2023-04-07T07:35:22;98206.31;;;0.42;91.44
58467;BME280;44255;49.244;7.726;2023-04-07T07:37:49;98213.72;;;0.60;91.38
58467;BME280;44255;49.244;7.726;2023-04-07T07:40:14;98202.09;;;0.64;92.59
58467;BME280;44255;49.244;7.726;2023-04-07T07:42:40;98207.34;;;0.66;94.18
58467;BME280;44255;49.244;7.726;2023-04-07T07:45:05;98206.31;;;0.99;95.51
58467;BME280;44255;49.244;7.726;2023-04-07T07:47:31;98202.06;;;1.20;95.97
58467;BME280;44255;49.244;7.726;2023-04-07T07:49:56;98206.41;;;1.22;95.08
58467;BME280;44255;49.244;7.726;2023-04-07T07:52:22;98206.75;;;1.38;93.88
58467;BME280;44255;49.244;7.726;2023-04-07T07:54:49;98211.13;;;1.14;94.42
58467;BME280;44255;49.244;7.726;2023-04-07T07:57:14;98209.06;;;1.22;89.97
58467;BME280;44255;49.244;7.726;2023-04-07T07:59:40;98210.44;;;1.07;91.92
58467;BME280;44255;49.244;7.726;2023-04-07T08:02:06;98210.16;;;1.17;89.89
58467;BME280;44255;49.244;7.726;2023-04-07T08:04:32;98219.19;;;1.11;91.64
58467;BME280;44255;49.244;7.726;2023-04-07T08:06:57;98223.81;;;1.31;90.50
58467;BME280;44255;49.244;7.726;2023-04-07T08:09:22;98222.72;;;1.64;88.32
58467;BME280;44255;49.244;7.726;2023-04-07T08:11:47;98227.88;;;1.42;88.22
58467;BME280;44255;49.244;7.726;2023-04-07T08:14:13;98224.97;;;1.49;87.61
58467;BME280;44255;49.244;7.726;2023-04-07T08:16:39;98218.97;;;1.44;88.54
58467;BME280;44255;49.244;7.726;2023-04-07T08:19:05;98229.66;;;1.41;89.21
58467;BME280;44255;49.244;7.726;2023-04-07T08:21:30;98244.41;;;1.24;88.86
58467;BME280;44255;49.244;7.726;2023-04-07T08:23:55;98243.56;;;0.95;89.41
58467;BME280;44255;49.244;7.726;2023-04-07T08:26:21;98235.63;;;0.94;90.10
58467;BME280;44255;49.244;7.726;2023-04-07T08:28:48;98241.41;;;0.80;91.02
58467;BME280;44255;49.244;7.726;2023-04-07T08:31:15;98241.16;;;0.88;90.61
58467;BME280;44255;49.244;7.726;2023-04-07T08:33:40;98245.97;;;1.03;90.32
58467;BME280;44255;49.244;7.726;2023-04-07T08:36:06;98245.09;;;1.03;91.28
58467;BME280;44255;49.244;7.726;2023-04-07T08:38:31;98247.63;;;1.06;90.01
58467;BME280;44255;49.244;7.726;2023-04-07T08:41:03;98243.06;;;1.11;90.00
58467;BME280;44255;49.244;7.726;2023-04-07T08:43:32;98252.72;;;0.85;90.11
58467;BME280;44255;49.244;7.726;2023-04-07T08:45:59;98261.94;;;1.02;89.55
58467;BME280;44255;49.244;7.726;2023-04-07T08:48:28;98257.88;;;1.18;90.67
58467;BME280;44255;49.244;7.726;2023-04-07T08:50:59;98254.09;;;1.25;88.45
58467;BME280;44255;49.244;7.726;2023-04-07T08:53:28;98258.91;;;1.14;88.08
58467;BME280;44255;49.244;7.726;2023-04-07T08:55:59;98259.13;;;1.06;90.39
58467;BME280;44255;49.244;7.726;2023-04-07T08:58:26;98257.44;;;1.04;89.66
58467;BME280;44255;49.244;7.726;2023-04-07T09:00:51;98262.16;;;1.22;89.19
58467;BME280;44255;49.244;7.726;2023-04-07T09:03:17;98257.81;;;1.20;87.78
58467;BME280;44255;49.244;7.726;2023-04-07T09:05:44;98259.09;;;1.35;88.06
58467;BME280;44255;49.244;7.726;2023-04-07T09:08:10;98271.41;;;1.37;88.69
58467;BME280;44255;49.244;7.726;2023-04-07T09:10:35;98271.03;;;1.21;89.55
58467;BME280;44255;49.244;7.726;2023-04-07T09:13:01;98275.34;;;1.25;88.08
58467;BME280;44255;49.244;7.726;2023-04-07T09:15:30;98274.69;;;0.90;89.38
58467;BME280;44255;49.244;7.726;2023-04-07T09:17:57;98280.41;;;1.05;89.54
58467;BME280;44255;49.244;7.726;2023-04-07T09:20:22;98272.44;;;1.05;89.03
58467;BME280;44255;49.244;7.726;2023-04-07T09:22:47;98275.84;;;1.10;88.30
58467;BME280;44255;49.244;7.726;2023-04-07T09:25:19;98278.06;;;1.22;87.47
58467;BME280;44255;49.244;7.726;2023-04-07T09:28:00;98270.63;;;1.34;87.97
58467;BME280;44255;49.244;7.726;2023-04-07T09:30:27;98279.78;;;1.52;87.17
58467;BME280;44255;49.244;7.726;2023-04-07T09:32:53;98266.53;;;1.50;85.84
58467;BME280;44255;49.244;7.726;2023-04-07T09:38:42;98266.03;;;1.66;84.77
58467;BME280;44255;49.244;7.726;2023-04-07T09:41:09;98267.66;;;1.70;83.69
58467;BME280;44255;49.244;7.726;2023-04-07T09:43:37;98271.34;;;1.66;84.48
58467;BME280;44255;49.244;7.726;2023-04-07T09:46:13;98271.88;;;1.76;83.80
58467;BME280;44255;49.244;7.726;2023-04-07T09:48:39;98280.44;;;1.59;83.42
58467;BME280;44255;49.244;7.726;2023-04-07T09:51:06;98273.34;;;1.85;84.11
58467;BME280;44255;49.244;7.726;2023-04-07T09:53:50;98281.41;;;1.56;84.26
58467;BME280;44255;49.244;7.726;2023-04-07T09:56:18;98276.31;;;1.75;84.37
58467;BME280;44255;49.244;7.726;2023-04-07T09:58:47;98263.59;;;1.60;84.89
58467;BME280;44255;49.244;7.726;2023-04-07T10:01:14;98270.81;;;1.81;83.69
58467;BME280;44255;49.244;7.726;2023-04-07T10:03:40;98276.38;;;1.74;84.21
58467;BME280;44255;49.244;7.726;2023-04-07T10:06:06;98268.19;;;1.80;83.22
58467;BME280;44255;49.244;7.726;2023-04-07T10:08:35;98274.81;;;1.68;83.18
58467;BME280;44255;49.244;7.726;2023-04-07T10:11:01;98279.09;;;1.72;83.93
58467;BME280;44255;49.244;7.726;2023-04-07T10:13:31;98276.00;;;1.85;84.10
58467;BME280;44255;49.244;7.726;2023-04-07T10:15:58;98283.56;;;1.97;83.81
58467;BME280;44255;49.244;7.726;2023-04-07T10:18:28;98283.06;;;1.86;83.36
58467;BME280;44255;49.244;7.726;2023-04-07T10:20:55;98283.16;;;1.82;82.14
58467;BME280;44255;49.244;7.726;2023-04-07T10:23:25;98280.72;;;1.76;82.70
58467;BME280;44255;49.244;7.726;2023-04-07T10:25:53;98284.25;;;2.02;82.62
58467;BME280;44255;49.244;7.726;2023-04-07T10:28:22;98287.94;;;2.23;80.94
58467;BME280;44255;49.244;7.726;2023-04-07T10:30:48;98280.50;;;2.32;81.15
58467;BME280;44255;49.244;7.726;2023-04-07T10:33:14;98283.16;;;2.57;80.27
58467;BME280;44255;49.244;7.726;2023-04-07T10:36:07;98282.50;;;2.50;79.61
58467;BME280;44255;49.244;7.726;2023-04-07T10:38:32;98286.38;;;2.42;79.53
58467;BME280;44255;49.244;7.726;2023-04-07T10:40:58;98282.22;;;2.58;78.41
58467;BME280;44255;49.244;7.726;2023-04-07T10:43:37;98278.06;;;2.51;79.17
58467;BME280;44255;49.244;7.726;2023-04-07T10:46:03;98279.78;;;2.28;79.66
58467;BME280;44255;49.244;7.726;2023-04-07T10:48:29;98290.63;;;2.22;79.51
58467;BME280;44255;49.244;7.726;2023-04-07T10:53:28;98281.16;;;2.86;76.81
58467;BME280;44255;49.244;7.726;2023-04-07T10:55:53;98288.97;;;2.45;78.35
58467;BME280;44255;49.244;7.726;2023-04-07T10:58:29;98288.13;;;2.43;78.35
58467;BME280;44255;49.244;7.726;2023-04-07T11:03:36;98285.94;;;2.29;78.73
58467;BME280;44255;49.244;7.726;2023-04-07T11:06:06;98282.63;;;2.47;78.38
58467;BME280;44255;49.244;7.726;2023-04-07T11:08:45;98282.63;;;2.47;77.87
58467;BME280;44255;49.244;7.726;2023-04-07T11:11:15;98281.63;;;2.74;75.85
58467;BME280;44255;49.244;7.726;2023-04-07T11:13:45;98279.81;;;2.52;76.38
58467;BME280;44255;49.244;7.726;2023-04-07T11:16:12;98274.91;;;2.87;74.08
58467;BME280;44255;49.244;7.726;2023-04-07T11:18:38;98275.09;;;3.05;73.93
58467;BME280;44255;49.244;7.726;2023-04-07T11:21:04;98287.53;;;2.82;73.11
58467;BME280;44255;49.244;7.726;2023-04-07T11:23:36;98274.75;;;3.14;71.13
58467;BME280;44255;49.244;7.726;2023-04-07T11:26:02;98279.25;;;3.34;71.29
58467;BME280;44255;49.244;7.726;2023-04-07T11:28:28;98281.13;;;3.53;69.54
58467;BME280;44255;49.244;7.726;2023-04-07T11:30:54;98280.19;;;2.89;71.31
58467;BME280;44255;49.244;7.726;2023-04-07T11:33:22;98287.53;;;2.82;73.07
58467;BME280;44255;49.244;7.726;2023-04-07T11:36:05;98282.97;;;2.62;73.61
58467;BME280;44255;49.244;7.726;2023-04-07T11:38:35;98282.22;;;2.58;73.11
58467;BME280;44255;49.244;7.726;2023-04-07T11:41:12;98286.75;;;2.56;73.98
58467;BME280;44255;49.244;7.726;2023-04-07T11:43:39;98293.66;;;2.60;74.13
58467;BME280;44255;49.244;7.726;2023-04-07T11:46:16;98290.00;;;2.64;75.29
58467;BME280;44255;49.244;7.726;2023-04-07T11:48:43;98290.88;;;2.39;75.16
58467;BME280;44255;49.244;7.726;2023-04-07T11:51:20;98300.63;;;2.41;75.83
58467;BME280;44255;49.244;7.726;2023-04-07T11:53:46;98296.09;;;2.90;74.43
58467;BME280;44255;49.244;7.726;2023-04-07T11:56:18;98297.50;;;2.99;73.85
58467;BME280;44255;49.244;7.726;2023-04-07T11:58:52;98285.81;;;3.03;73.38
58467;BME280;44255;49.244;7.726;2023-04-07T12:01:18;98302.63;;;3.05;74.62
58467;BME280;44255;49.244;7.726;2023-04-07T12:04:01;98294.09;;;2.95;73.92
58467;BME280;44255;49.244;7.726;2023-04-07T12:06:35;98289.31;;;3.05;73.71
58467;BME280;44255;49.244;7.726;2023-04-07T12:09:04;98293.63;;;3.30;72.08
58467;BME280;44255;49.244;7.726;2023-04-07T12:11:30;98292.94;;;3.47;71.69
58467;BME280;44255;49.244;7.726;2023-04-07T12:13:57;98288.03;;;3.79;70.84
58467;BME280;44255;49.244;7.726;2023-04-07T12:16:23;98285.97;;;4.28;68.35
58467;BME280;44255;49.244;7.726;2023-04-07T12:18:49;98290.53;;;4.26;68.26
58467;BME280;44255;49.244;7.726;2023-04-07T12:21:16;98294.94;;;4.46;67.25
58467;BME280;44255;49.244;7.726;2023-04-07T12:23:41;98281.47;;;4.68;66.50
58467;BME280;44255;49.244;7.726;2023-04-07T12:26:06;98296.91;;;4.42;66.43
58467;BME280;44255;49.244;7.726;2023-04-07T12:28:32;98297.50;;;3.66;70.25
58467;BME280;44255;49.244;7.726;2023-04-07T12:30:58;98297.22;;;3.93;71.99
58467;BME280;44255;49.244;7.726;2023-04-07T12:33:23;98306.72;;;4.00;70.81
58467;BME280;44255;49.244;7.726;2023-04-07T12:35:49;98301.72;;;4.13;71.89
58467;BME280;44255;49.244;7.726;2023-04-07T12:38:14;98309.28;;;4.03;71.86
58467;BME280;44255;49.244;7.726;2023-04-07T12:40:40;98311.50;;;4.13;73.32
58467;BME280;44255;49.244;7.726;2023-04-07T12:43:06;98314.78;;;4.19;74.52
58467;BME280;44255;49.244;7.726;2023-04-07T12:45:31;98312.53;;;4.10;76.38
58467;BME280;44255;49.244;7.726;2023-04-07T12:47:57;98311.44;;;4.35;74.98
58467;BME280;44255;49.244;7.726;2023-04-07T12:50:23;98309.75;;;4.53;74.68
58467;BME280;44255;49.244;7.726;2023-04-07T12:52:53;98300.97;;;4.89;71.14
58467;BME280;44255;49.244;7.726;2023-04-07T12:55:19;98295.59;;;5.08;70.64
58467;BME280;44255;49.244;7.726;2023-04-07T12:57:44;98299.19;;;5.27;68.55
58467;BME280;44255;49.244;7.726;2023-04-07T13:00:12;98297.47;;;5.06;67.93
58467;BME280;44255;49.244;7.726;2023-04-07T13:02:37;98307.41;;;5.22;68.93
58467;BME280;44255;49.244;7.726;2023-04-07T13:05:03;98307.78;;;5.14;68.27
58467;BME280;44255;49.244;7.726;2023-04-07T13:07:28;98316.75;;;4.75;65.33
58467;BME280;44255;49.244;7.726;2023-04-07T13:09:54;98313.06;;;4.58;67.12
58467;BME280;44255;49.244;7.726;2023-04-07T13:12:19;98295.47;;;4.73;66.45
58467;BME280;44255;49.244;7.726;2023-04-07T13:14:45;98299.72;;;4.97;66.72
58467;BME280;44255;49.244;7.726;2023-04-07T13:17:10;98306.66;;;5.37;65.91
58467;BME280;44255;49.244;7.726;2023-04-07T13:19:36;98300.38;;;5.38;67.00
58467;BME280;44255;49.244;7.726;2023-04-07T13:22:02;98296.34;;;5.49;65.43
58467;BME280;44255;49.244;7.726;2023-04-07T13:24:27;98298.72;;;5.55;63.41
58467;BME280;44255;49.244;7.726;2023-04-07T13:26:52;98297.78;;;5.74;62.31
58467;BME280;44255;49.244;7.726;2023-04-07T13:29:18;98297.94;;;5.88;60.64
58467;BME280;44255;49.244;7.726;2023-04-07T13:31:46;98296.94;;;5.73;59.88
58467;BME280;44255;49.244;7.726;2023-04-07T13:34:13;98287.63;;;5.45;59.27
58467;BME280;44255;49.244;7.726;2023-04-07T13:36:39;98289.53;;;5.78;59.10
58467;BME280;44255;49.244;7.726;2023-04-07T13:39:04;98287.34;;;7.83;54.68
58467;BME280;44255;49.244;7.726;2023-04-07T13:41:29;98278.72;;;7.77;53.71
58467;BME280;44255;49.244;7.726;2023-04-07T13:43:55;98285.38;;;7.24;56.56
58467;BME280;44255;49.244;7.726;2023-04-07T13:46:22;98283.59;;;7.08;57.43
58467;BME280;44255;49.244;7.726;2023-04-07T13:48:47;98287.31;;;6.89;57.43
58467;BME280;44255;49.244;7.726;2023-04-07T13:51:13;98301.63;;;6.21;58.54
58467;BME280;44255;49.244;7.726;2023-04-07T13:53:38;98302.72;;;5.64;60.54
58467;BME280;44255;49.244;7.726;2023-04-07T13:56:03;98308.16;;;5.26;62.37
58467;BME280;44255;49.244;7.726;2023-04-07T13:58:32;98309.88;;;5.27;64.28
58467;BME280;44255;49.244;7.726;2023-04-07T14:00:58;98309.97;;;5.06;63.68
58467;BME280;44255;49.244;7.726;2023-04-07T14:03:23;98314.13;;;5.31;62.75
58467;BME280;44255;49.244;7.726;2023-04-07T14:05:48;98303.84;;;5.77;64.14
58467;BME280;44255;49.244;7.726;2023-04-07T14:08:13;98302.50;;;6.73;60.58
58467;BME280;44255;49.244;7.726;2023-04-07T14:10:39;98298.81;;;8.15;56.02
58467;BME280;44255;49.244;7.726;2023-04-07T14:13:04;98301.44;;;8.89;53.70
58467;BME280;44255;49.244;7.726;2023-04-07T14:15:30;98303.00;;;8.64;53.78
58467;BME280;44255;49.244;7.726;2023-04-07T14:17:55;98299.03;;;6.87;55.25
58467;BME280;44255;49.244;7.726;2023-04-07T14:20:20;98297.47;;;6.99;57.54
58467;BME280;44255;49.244;7.726;2023-04-07T14:22:46;98301.53;;;6.74;58.65
58467;BME280;44255;49.244;7.726;2023-04-07T14:25:11;98310.09;;;6.63;59.62
58467;BME280;44255;49.244;7.726;2023-04-07T14:27:37;98305.78;;;6.78;59.72
58467;BME280;44255;49.244;7.726;2023-04-07T14:30:02;98314.00;;;5.88;61.00
58467;BME280;44255;49.244;7.726;2023-04-07T14:32:27;98309.50;;;6.24;60.84
58467;BME280;44255;49.244;7.726;2023-04-07T14:34:57;98299.81;;;6.04;63.48
58467;BME280;44255;49.244;7.726;2023-04-07T14:37:23;98301.50;;;6.06;62.07
58467;BME280;44255;49.244;7.726;2023-04-07T14:39:53;98301.34;;;5.92;61.87
58467;BME280;44255;49.244;7.726;2023-04-07T14:42:19;98298.03;;;5.87;62.09
58467;BME280;44255;49.244;7.726;2023-04-07T14:44:44;98298.00;;;5.69;62.42
58467;BME280;44255;49.244;7.726;2023-04-07T14:47:10;98296.06;;;5.73;61.47
58467;BME280;44255;49.244;7.726;2023-04-07T14:49:35;98306.97;;;5.68;60.55
58467;BME280;44255;49.244;7.726;2023-04-07T14:52:01;98300.84;;;5.66;61.53
58467;BME280;44255;49.244;7.726;2023-04-07T14:54:27;98301.41;;;5.90;59.13
58467;BME280;44255;49.244;7.726;2023-04-07T14:56:53;98301.50;;;5.89;59.97
58467;BME280;44255;49.244;7.726;2023-04-07T14:59:18;98300.53;;;6.07;58.83
58467;BME280;44255;49.244;7.726;2023-04-07T15:01:46;98296.84;;;7.58;55.87
58467;BME280;44255;49.244;7.726;2023-04-07T15:04:11;98300.16;;;6.99;55.00
58467;BME280;44255;49.244;7.726;2023-04-07T15:06:39;98305.97;;;6.57;56.95
58467;BME280;44255;49.244;7.726;2023-04-07T15:09:05;98297.97;;;6.73;57.50
58467;BME280;44255;49.244;7.726;2023-04-07T15:11:31;98309.84;;;6.68;57.86
58467;BME280;44255;49.244;7.726;2023-04-07T15:13:56;98307.59;;;6.93;57.23
58467;BME280;44255;49.244;7.726;2023-04-07T15:16:21;98302.41;;;6.90;57.36
58467;BME280;44255;49.244;7.726;2023-04-07T15:18:47;98306.41;;;6.65;59.50
58467;BME280;44255;49.244;7.726;2023-04-07T15:21:13;98311.22;;;6.59;58.07
58467;BME280;44255;49.244;7.726;2023-04-07T15:23:39;98308.44;;;6.27;58.03
58467;BME280;44255;49.244;7.726;2023-04-07T15:26:05;98308.94;;;6.35;56.36
58467;BME280;44255;49.244;7.726;2023-04-07T15:28:31;98312.56;;;6.16;56.80
58467;BME280;44255;49.244;7.726;2023-04-07T15:30:56;98308.63;;;6.06;57.39
58467;BME280;44255;49.244;7.726;2023-04-07T15:33:22;98320.75;;;5.78;57.93
58467;BME280;44255;49.244;7.726;2023-04-07T15:35:48;98320.75;;;5.41;58.14
58467;BME280;44255;49.244;7.726;2023-04-07T15:38:13;98317.09;;;5.44;59.47
58467;BME280;44255;49.244;7.726;2023-04-07T15:40:40;98320.75;;;5.78;58.62
58467;BME280;44255;49.244;7.726;2023-04-07T15:43:05;98319.72;;;6.16;57.95
58467;BME280;44255;49.244;7.726;2023-04-07T15:45:34;98318.13;;;8.22;52.71
58467;BME280;44255;49.244;7.726;2023-04-07T15:47:59;98307.78;;;8.30;50.09
58467;BME280;44255;49.244;7.726;2023-04-07T15:50:24;98313.50;;;9.81;48.33
58467;BME280;44255;49.244;7.726;2023-04-07T15:52:51;98314.91;;;10.27;46.23
58467;BME280;44255;49.244;7.726;2023-04-07T15:55:16;98303.28;;;11.28;44.23
58467;BME280;44255;49.244;7.726;2023-04-07T15:57:41;98307.88;;;11.02;44.65
58467;BME280;44255;49.244;7.726;2023-04-07T16:00:07;98318.00;;;9.80;46.96
58467;BME280;44255;49.244;7.726;2023-04-07T16:02:33;98317.88;;;11.00;45.16
58467;BME280;44255;49.244;7.726;2023-04-07T16:04:58;98320.63;;;8.98;49.46
58467;BME280;44255;49.244;7.726;2023-04-07T16:07:23;98331.34;;;8.11;51.09
58467;BME280;44255;49.244;7.726;2023-04-07T16:09:50;98328.91;;;7.75;52.21
58467;BME280;44255;49.244;7.726;2023-04-07T16:12:15;98333.13;;;7.17;54.27
58467;BME280;44255;49.244;7.726;2023-04-07T16:14:41;98339.13;;;6.71;54.44
58467;BME280;44255;49.244;7.726;2023-04-07T16:17:06;98341.81;;;6.71;54.84
58467;BME280;44255;49.244;7.726;2023-04-07T16:19:31;98339.81;;;7.56;52.59
58467;BME280;44255;49.244;7.726;2023-04-07T16:21:56;98331.66;;;9.64;48.92
58467;BME280;44255;49.244;7.726;2023-04-07T16:24:22;98340.44;;;10.73;46.33
58467;BME280;44255;49.244;7.726;2023-04-07T16:26:47;98343.66;;;8.58;50.45
58467;BME280;44255;49.244;7.726;2023-04-07T16:29:18;98356.94;;;7.54;52.71
58467;BME280;44255;49.244;7.726;2023-04-07T16:31:44;98370.59;;;6.85;54.04
58467;BME280;44255;49.244;7.726;2023-04-07T16:34:10;98366.44;;;6.61;54.01
58467;BME280;44255;49.244;7.726;2023-04-07T16:36:35;98369.53;;;5.83;54.58
58467;BME280;44255;49.244;7.726;2023-04-07T16:39:01;98372.16;;;5.48;57.05
58467;BME280;44255;49.244;7.726;2023-04-07T16:41:26;98375.81;;;5.45;57.51
58467;BME280;44255;49.244;7.726;2023-04-07T16:43:51;98373.69;;;5.33;57.72